Time,TemperatureF,DewpointF,PressureIn,WindDirection,WindDirectionDegrees,WindSpeedMPH,WindSpeedGustMPH,Humidity,HourlyPrecipIn,Conditions,Clouds,dailyrainin,SoftwareType,DateUTC
2013-01-21 00:03:00,37.8,29.0,30.20,SW,217,0.0,3.0,70,0.00,,,0.00,weatherlink.com 1.10,2013-01-21 05:03:00,
2013-01-21 00:18:00,37.6,29.0,30.20,SSE,165,2.0,3.0,71,0.00,,,0.00,weatherlink.com 1.10,2013-01-21 05:18:00,
2013-01-21 00:33:00,36.6,29.0,30.18,SSE,165,0.0,2.0,73,0.00,,,0.00,weatherlink.com 1.10,2013-01-21 05:33:00,
2013-01-21 00:48:00,36.4,29.0,30.19,SSE,163,0.0,2.0,74,0.00,,,0.00,weatherlink.com 1.10,2013-01-21 05:48:00,
2013-01-21 01:03:00,37.0,28.0,30.18,South,176,1.0,2.0,71,0.00,,,0.00,weatherlink.com 1.10,2013-01-21 06:03:00,
2013-01-21 01:18:00,37.5,29.0,30.18,South,169,0.0,2.0,71,0.00,,,0.00,weatherlink.com 1.10,2013-01-21 06:18:00,
2013-01-21 01:33:00,37.1,28.0,30.18,South,169,0.0,1.0,71,0.00,,,0.00,weatherlink.com 1.10,2013-01-21 06:33:00,
2013-01-21 01:48:00,37.1,28.0,30.18,South,169,0.0,1.0,70,0.00,,,0.00,weatherlink.com 1.10,2013-01-21 06:48:00,
2013-01-21 02:03:00,36.6,29.0,30.18,South,169,0.0,1.0,73,0.00,,,0.00,weatherlink.com 1.10,2013-01-21 07:03:00,
2013-01-21 02:18:00,34.7,28.0,30.19,South,169,0.0,1.0,77,0.00,,,0.00,weatherlink.com 1.10,2013-01-21 07:18:00,
2013-01-21 02:33:00,33.4,28.0,30.19,South,169,0.0,0.0,80,0.00,,,0.00,weatherlink.com 1.10,2013-01-21 07:33:00,
2013-01-21 02:48:00,32.5,28.0,30.19,South,169,0.0,0.0,82,0.00,,,0.00,weatherlink.com 1.10,2013-01-21 07:48:00,
2013-01-21 03:03:00,32.0,28.0,30.19,South,169,0.0,1.0,84,0.00,,,0.00,weatherlink.com 1.10,2013-01-21 08:03:00,
2013-01-21 03:18:00,32.3,28.0,30.19,South,169,0.0,1.0,84,0.00,,,0.00,weatherlink.com 1.10,2013-01-21 08:18:00,
2013-01-21 03:33:00,31.8,27.0,30.19,South,169,0.0,0.0,83,0.00,,,0.00,weatherlink.com 1.10,2013-01-21 08:33:00,
2013-01-21 03:48:00,30.8,27.0,30.18,South,169,0.0,0.0,86,0.00,,,0.00,weatherlink.com 1.10,2013-01-21 08:48:00,
2013-01-21 04:03:00,30.9,28.0,30.18,South,169,0.0,1.0,87,0.00,,,0.00,weatherlink.com 1.10,2013-01-21 09:03:00,
2013-01-21 04:18:00,30.9,28.0,30.17,South,169,1.0,2.0,87,0.00,,,0.00,weatherlink.com 1.10,2013-01-21 09:18:00,
2013-01-21 04:33:00,31.1,27.0,30.17,South,169,0.0,1.0,86,0.00,,,0.00,weatherlink.com 1.10,2013-01-21 09:33:00,
2013-01-21 04:48:00,31.0,28.0,30.17,South,169,0.0,0.0,87,0.00,,,0.00,weatherlink.com 1.10,2013-01-21 09:48:00,
2013-01-21 05:03:00,30.9,28.0,30.16,South,169,1.0,2.0,87,0.00,,,0.00,weatherlink.com 1.10,2013-01-21 10:03:00,
2013-01-21 05:18:00,31.0,28.0,30.16,South,169,2.0,2.0,87,0.00,,,0.00,weatherlink.com 1.10,2013-01-21 10:18:00,
2013-01-21 05:33:00,31.0,27.0,30.16,South,169,0.0,2.0,86,0.00,,,0.00,weatherlink.com 1.10,2013-01-21 10:33:00,
2013-01-21 05:48:00,30.8,27.0,30.16,South,169,0.0,1.0,87,0.00,,,0.00,weatherlink.com 1.10,2013-01-21 10:48:00,
2013-01-21 06:03:00,30.4,27.0,30.16,South,169,0.0,0.0,87,0.00,,,0.00,weatherlink.com 1.10,2013-01-21 11:03:00,
2013-01-21 06:18:00,30.1,27.0,30.16,South,169,0.0,0.0,88,0.00,,,0.00,weatherlink.com 1.10,2013-01-21 11:18:00,
2013-01-21 06:33:00,30.3,27.0,30.16,South,169,0.0,1.0,88,0.00,,,0.00,weatherlink.com 1.10,2013-01-21 11:33:00,
2013-01-21 06:48:00,30.2,27.0,30.16,South,169,0.0,0.0,88,0.00,,,0.00,weatherlink.com 1.10,2013-01-21 11:48:00,
2013-01-21 07:03:00,30.1,27.0,30.16,South,169,0.0,1.0,88,0.00,,,0.00,weatherlink.com 1.10,2013-01-21 12:03:00,
2013-01-21 07:18:00,30.1,27.0,30.16,South,169,0.0,0.0,88,0.00,,,0.00,weatherlink.com 1.10,2013-01-21 12:18:00,
2013-01-21 07:33:00,29.2,26.0,30.17,South,169,0.0,2.0,88,0.00,,,0.00,weatherlink.com 1.10,2013-01-21 12:33:00,
2013-01-21 07:48:00,29.6,27.0,30.18,WSW,248,0.0,0.0,89,0.00,,,0.00,weatherlink.com 1.10,2013-01-21 12:48:00,
2013-01-21 08:03:00,29.4,27.0,30.18,WSW,248,1.0,1.0,89,0.00,,,0.00,weatherlink.com 1.10,2013-01-21 13:03:00,
2013-01-21 08:18:00,28.8,26.0,30.17,WSW,248,0.0,1.0,90,0.00,,,0.00,weatherlink.com 1.10,2013-01-21 13:18:00,
2013-01-21 08:33:00,28.5,26.0,30.18,WSW,248,0.0,1.0,91,0.00,,,0.00,weatherlink.com 1.10,2013-01-21 13:33:00,
2013-01-21 08:49:00,28.4,26.0,30.17,WSW,248,0.0,0.0,92,0.00,,,0.00,weatherlink.com 1.10,2013-01-21 13:49:00,
2013-01-21 09:04:00,28.6,26.0,30.18,WSW,248,0.0,0.0,91,0.00,,,0.00,weatherlink.com 1.10,2013-01-21 14:04:00,
2013-01-21 09:19:00,29.2,27.0,30.18,WSW,248,0.0,0.0,92,0.00,,,0.00,weatherlink.com 1.10,2013-01-21 14:19:00,
2013-01-21 09:34:00,30.6,28.0,30.19,WSW,248,2.0,2.0,90,0.00,,,0.00,weatherlink.com 1.10,2013-01-21 14:34:00,
2013-01-21 09:49:00,31.4,29.0,30.20,WSW,248,0.0,0.0,89,0.00,,,0.00,weatherlink.com 1.10,2013-01-21 14:49:00,
2013-01-21 10:04:00,32.5,29.0,30.20,WSW,248,0.0,0.0,87,0.00,,,0.00,weatherlink.com 1.10,2013-01-21 15:04:00,
2013-01-21 10:19:00,34.0,29.0,30.20,SSW,209,0.0,2.0,81,0.00,,,0.00,weatherlink.com 1.10,2013-01-21 15:19:00,
2013-01-21 10:34:00,37.0,27.0,30.19,WSW,238,2.0,3.0,68,0.00,,,0.00,weatherlink.com 1.10,2013-01-21 15:34:00,
2013-01-21 10:49:00,40.4,27.0,30.20,WSW,251,0.0,4.0,60,0.00,,,0.00,weatherlink.com 1.10,2013-01-21 15:49:00,
2013-01-21 11:04:00,42.6,25.0,30.19,West,267,0.0,11.0,51,0.00,,,0.00,weatherlink.com 1.10,2013-01-21 16:04:00,
2013-01-21 11:19:00,43.4,26.0,30.19,West,270,0.0,12.0,50,0.00,,,0.00,weatherlink.com 1.10,2013-01-21 16:19:00,
2013-01-21 11:34:00,44.0,25.0,30.19,WSW,241,1.0,11.0,48,0.00,,,0.00,weatherlink.com 1.10,2013-01-21 16:34:00,
2013-01-21 11:49:00,44.3,25.0,30.17,WSW,254,3.0,9.0,47,0.00,,,0.00,weatherlink.com 1.10,2013-01-21 16:49:00,
2013-01-21 12:04:00,44.7,25.0,30.16,West,271,3.0,9.0,46,0.00,,,0.00,weatherlink.com 1.10,2013-01-21 17:04:00,
2013-01-21 12:19:00,45.0,25.0,30.15,WNW,288,1.0,8.0,46,0.00,,,0.00,weatherlink.com 1.10,2013-01-21 17:19:00,
2013-01-21 12:34:00,45.4,26.0,30.13,West,263,2.0,9.0,46,0.00,,,0.00,weatherlink.com 1.10,2013-01-21 17:34:00,
2013-01-21 12:49:00,45.8,26.0,30.12,West,265,0.0,8.0,46,0.00,,,0.00,weatherlink.com 1.10,2013-01-21 17:49:00,
2013-01-21 13:04:00,46.4,27.0,30.11,West,278,2.0,12.0,47,0.00,,,0.00,weatherlink.com 1.10,2013-01-21 18:04:00,
2013-01-21 13:19:00,46.1,27.0,30.10,WSW,258,1.0,9.0,48,0.00,,,0.00,weatherlink.com 1.10,2013-01-21 18:19:00,
2013-01-21 13:34:00,46.5,28.0,30.11,WSW,250,4.0,13.0,49,0.00,,,0.00,weatherlink.com 1.10,2013-01-21 18:34:00,
2013-01-21 13:49:00,46.6,28.0,30.10,West,262,6.0,10.0,48,0.00,,,0.00,weatherlink.com 1.10,2013-01-21 18:49:00,
2013-01-21 14:04:00,46.4,27.0,30.10,WSW,242,7.0,10.0,48,0.00,,,0.00,weatherlink.com 1.10,2013-01-21 19:04:00,
2013-01-21 14:19:00,46.2,27.0,30.10,SW,225,6.0,13.0,47,0.00,,,0.00,weatherlink.com 1.10,2013-01-21 19:19:00,
2013-01-21 14:34:00,46.2,27.0,30.10,NW,319,1.0,10.0,48,0.00,,,0.00,weatherlink.com 1.10,2013-01-21 19:34:00,
2013-01-21 14:49:00,46.4,26.0,30.11,West,271,3.0,11.0,46,0.00,,,0.00,weatherlink.com 1.10,2013-01-21 19:49:00,
2013-01-21 15:04:00,45.8,25.0,30.10,NW,304,1.0,11.0,45,0.00,,,0.00,weatherlink.com 1.10,2013-01-21 20:04:00,
2013-01-21 15:19:00,45.7,26.0,30.09,WSW,258,6.0,7.0,46,0.00,,,0.00,weatherlink.com 1.10,2013-01-21 20:19:00,
2013-01-21 15:34:00,46.1,25.0,30.09,West,272,2.0,14.0,44,0.00,,,0.00,weatherlink.com 1.10,2013-01-21 20:34:00,
2013-01-21 15:49:00,46.2,24.0,30.09,WSW,255,4.0,15.0,41,0.00,,,0.00,weatherlink.com 1.10,2013-01-21 20:49:00,
2013-01-21 16:05:00,45.6,22.0,30.10,WSW,256,5.0,15.0,40,0.00,,,0.00,weatherlink.com 1.10,2013-01-21 21:05:00,
2013-01-21 16:20:00,44.5,21.0,30.10,WNW,296,2.0,19.0,39,0.00,,,0.00,weatherlink.com 1.10,2013-01-21 21:20:00,
2013-01-21 16:35:00,43.7,19.0,30.10,West,279,4.0,17.0,37,0.00,,,0.00,weatherlink.com 1.10,2013-01-21 21:35:00,
2013-01-21 16:50:00,42.8,18.0,30.11,West,281,4.0,11.0,37,0.00,,,0.00,weatherlink.com 1.10,2013-01-21 21:50:00,
2013-01-21 17:05:00,41.9,18.0,30.12,WNW,294,8.0,17.0,39,0.00,,,0.00,weatherlink.com 1.10,2013-01-21 22:05:00,
2013-01-21 17:20:00,40.7,16.0,30.13,WNW,290,5.0,16.0,37,0.00,,,0.00,weatherlink.com 1.10,2013-01-21 22:20:00,
2013-01-21 17:35:00,39.8,16.0,30.13,West,263,14.0,18.0,38,0.00,,,0.00,weatherlink.com 1.10,2013-01-21 22:35:00,
2013-01-21 17:50:00,39.0,15.0,30.14,West,273,7.0,20.0,37,0.00,,,0.00,weatherlink.com 1.10,2013-01-21 22:50:00,
2013-01-21 18:05:00,38.5,15.0,30.14,West,268,4.0,19.0,38,0.00,,,0.00,weatherlink.com 1.10,2013-01-21 23:05:00,
2013-01-21 18:20:00,38.0,14.0,30.13,West,273,3.0,15.0,37,0.00,,,0.00,weatherlink.com 1.10,2013-01-21 23:20:00,
2013-01-21 18:35:00,37.7,14.0,30.13,WSW,248,3.0,19.0,38,0.00,,,0.00,weatherlink.com 1.10,2013-01-21 23:35:00,
2013-01-21 18:50:00,37.2,14.0,30.13,West,280,4.0,13.0,39,0.00,,,0.00,weatherlink.com 1.10,2013-01-21 23:50:00,
2013-01-21 19:05:00,37.4,14.0,30.13,WSW,240,3.0,18.0,39,0.00,,,0.00,weatherlink.com 1.10,2013-01-22 00:05:00,
2013-01-21 19:20:00,36.9,15.0,30.14,WSW,250,15.0,16.0,41,0.00,,,0.00,weatherlink.com 1.10,2013-01-22 00:20:00,
2013-01-21 19:35:00,37.2,14.0,30.14,West,264,5.0,24.0,39,0.00,,,0.00,weatherlink.com 1.10,2013-01-22 00:35:00,
2013-01-21 19:50:00,36.7,14.0,30.14,West,261,7.0,22.0,40,0.00,,,0.00,weatherlink.com 1.10,2013-01-22 00:50:00,
2013-01-21 20:05:00,36.2,14.0,30.13,West,281,14.0,23.0,41,0.00,,,0.00,weatherlink.com 1.10,2013-01-22 01:05:00,
2013-01-21 20:20:00,36.0,15.0,30.13,WSW,256,10.0,18.0,42,0.00,,,0.00,weatherlink.com 1.10,2013-01-22 01:20:00,
2013-01-21 20:35:00,35.7,15.0,30.13,WSW,240,5.0,16.0,43,0.00,,,0.00,weatherlink.com 1.10,2013-01-22 01:35:00,
2013-01-21 20:50:00,35.6,14.0,30.13,WSW,254,4.0,24.0,42,0.00,,,0.00,weatherlink.com 1.10,2013-01-22 01:50:00,
2013-01-21 21:05:00,35.4,15.0,30.14,SSW,199,1.0,21.0,43,0.00,,,0.00,weatherlink.com 1.10,2013-01-22 02:05:00,
2013-01-21 21:20:00,34.7,15.0,30.14,West,260,4.0,13.0,45,0.00,,,0.00,weatherlink.com 1.10,2013-01-22 02:20:00,
2013-01-21 21:35:00,34.1,15.0,30.15,WNW,282,6.0,17.0,46,0.00,,,0.00,weatherlink.com 1.10,2013-01-22 02:35:00,
2013-01-21 21:50:00,33.8,15.0,30.14,SW,229,7.0,16.0,47,0.00,,,0.00,weatherlink.com 1.10,2013-01-22 02:50:00,
2013-01-21 22:05:00,33.3,15.0,30.14,WSW,254,7.0,23.0,47,0.00,,,0.00,weatherlink.com 1.10,2013-01-22 03:05:00,
2013-01-21 22:20:00,32.9,15.0,30.15,West,279,6.0,19.0,48,0.00,,,0.00,weatherlink.com 1.10,2013-01-22 03:20:00,
2013-01-21 22:35:00,32.5,15.0,30.15,West,278,2.0,21.0,48,0.00,,,0.00,weatherlink.com 1.10,2013-01-22 03:35:00,
2013-01-21 22:50:00,31.7,15.0,30.15,West,277,3.0,20.0,50,0.00,,,0.00,weatherlink.com 1.10,2013-01-22 03:50:00,
2013-01-21 23:05:00,31.2,15.0,30.15,WNW,292,5.0,18.0,51,0.00,,,0.00,weatherlink.com 1.10,2013-01-22 04:05:00,
2013-01-21 23:20:00,30.6,15.0,30.16,NNW,331,6.0,15.0,52,0.00,,,0.00,weatherlink.com 1.10,2013-01-22 04:20:00,
2013-01-21 23:35:00,29.9,14.0,30.16,West,275,4.0,18.0,52,0.00,,,0.00,weatherlink.com 1.10,2013-01-22 04:35:00,
2013-01-21 23:50:00,29.3,13.0,30.16,West,271,5.0,14.0,50,0.00,,,0.00,weatherlink.com 1.10,2013-01-22 04:50:00,